createdAt,value
2023-05-04T05:03:25.333Z,11.63
2023-05-04T05:04:25.379Z,11.60
2023-05-04T05:05:25.269Z,11.51
2023-05-04T05:06:26.249Z,11.44
2023-05-04T05:07:25.282Z,11.51
2023-05-04T05:08:25.241Z,11.53
2023-05-04T05:09:25.225Z,11.53
2023-05-04T05:10:25.260Z,11.37
2023-05-04T05:11:25.961Z,11.49
2023-05-04T05:12:25.911Z,11.49
2023-05-04T05:13:26.916Z,11.49
2023-05-04T05:14:26.556Z,11.39
2023-05-04T05:15:27.715Z,11.47
2023-05-04T05:16:27.349Z,11.44
2023-05-04T05:17:27.017Z,11.47
2023-05-04T05:18:29.493Z,11.43
2023-05-04T05:19:26.743Z,11.43
2023-05-04T05:20:26.658Z,11.56
2023-05-04T05:21:27.533Z,11.56
2023-05-04T05:22:27.469Z,11.57
2023-05-04T05:23:26.961Z,11.53
2023-05-04T05:24:27.839Z,11.46
2023-05-04T05:25:26.709Z,11.49
2023-05-04T05:26:25.732Z,11.60
2023-05-04T05:27:26.961Z,11.57
2023-05-04T05:28:26.828Z,11.64
2023-05-04T05:29:28.394Z,11.67
2023-05-04T05:30:25.948Z,11.70
2023-05-04T05:31:27.026Z,11.74
2023-05-04T05:32:27.554Z,11.80
2023-05-04T05:33:26.854Z,11.70
2023-05-04T05:34:26.425Z,11.36
2023-05-04T05:35:27.026Z,11.11
2023-05-04T05:36:27.059Z,11.25
2023-05-04T05:37:26.178Z,11.21
2023-05-04T05:38:26.340Z,11.08
2023-05-04T05:39:25.906Z,11.09
2023-05-04T05:40:25.807Z,11.19
2023-05-04T05:41:25.920Z,10.95
2023-05-04T05:43:45.117Z,11.25
2023-05-04T05:44:45.028Z,11.34
2023-05-04T05:45:44.860Z,11.50
2023-05-04T05:46:45.984Z,11.53
2023-05-04T05:47:46.020Z,11.64
2023-05-04T05:48:45.882Z,11.70
2023-05-04T05:49:46.432Z,11.84
2023-05-04T05:50:44.862Z,11.91
2023-05-04T05:51:45.853Z,11.99
2023-05-04T05:52:44.835Z,12.08
2023-05-04T05:53:45.863Z,12.09
2023-05-04T05:54:44.796Z,12.05
2023-05-04T05:55:45.782Z,11.98
2023-05-04T05:56:44.801Z,11.88
2023-05-04T05:57:44.779Z,11.88
2023-05-04T05:58:45.813Z,12.02
2023-05-04T05:59:44.807Z,12.08
2023-05-04T06:00:45.771Z,12.09
2023-05-04T06:01:45.934Z,12.15
2023-05-04T06:02:44.863Z,12.20
2023-05-04T06:03:44.953Z,12.05
2023-05-04T06:04:44.787Z,11.77
2023-05-04T06:05:45.773Z,12.03
2023-05-04T06:06:46.148Z,12.22
2023-05-04T06:07:46.680Z,12.26
2023-05-04T06:08:46.007Z,12.41
2023-05-04T06:09:44.870Z,12.43
2023-05-04T06:10:44.921Z,12.41
2023-05-04T06:11:45.080Z,12.32
2023-05-04T06:12:44.977Z,12.50
2023-05-04T06:13:46.022Z,12.58
2023-05-04T06:14:45.059Z,12.64
2023-05-04T06:15:45.053Z,12.71
2023-05-04T06:16:46.241Z,12.74
2023-05-04T06:17:46.566Z,12.80
2023-05-04T06:18:46.157Z,12.89
2023-05-04T06:19:47.579Z,12.74
2023-05-04T06:20:46.709Z,12.67
2023-05-04T06:23:04.343Z,12.77
2023-05-04T06:29:21.222Z,13.03
2023-05-04T06:30:21.248Z,13.06
2023-05-04T06:31:21.336Z,13.09
2023-05-04T06:32:22.275Z,13.16
2023-05-04T06:33:22.213Z,12.99
2023-05-04T06:35:41.338Z,12.63
2023-05-04T06:38:01.124Z,12.70
2023-05-04T06:40:35.727Z,12.78
2023-05-04T06:41:35.728Z,12.54
2023-05-04T06:42:36.666Z,12.55
2023-05-04T06:43:37.058Z,12.46
2023-05-04T06:44:35.945Z,12.41
2023-05-04T06:45:39.650Z,12.61
2023-05-04T06:46:48.758Z,12.68
2023-05-04T06:48:55.864Z,12.77
2023-05-04T06:49:57.264Z,12.82
2023-05-04T06:57:31.454Z,13.12
2023-05-04T07:00:56.674Z,12.87
2023-05-04T07:03:34.926Z,12.68
2023-05-04T07:05:49.687Z,13.12
2023-05-04T07:06:50.721Z,13.15
2023-05-04T07:07:51.446Z,13.19
2023-05-04T07:10:10.195Z,13.36
2023-05-04T07:12:47.408Z,13.50
2023-05-04T07:16:28.818Z,13.54
2023-05-04T07:18:45.589Z,13.62
2023-05-04T07:19:46.003Z,13.68
2023-05-04T07:20:47.185Z,13.79
2023-05-04T07:21:46.205Z,13.90
2023-05-04T07:24:05.135Z,13.98
2023-05-04T07:26:27.420Z,14.02
2023-05-04T07:27:24.599Z,13.90
2023-05-04T07:28:25.358Z,13.72
2023-05-04T07:29:29.573Z,13.85
2023-05-04T07:30:24.916Z,13.92
2023-05-04T07:31:31.012Z,13.92
2023-05-04T07:33:46.095Z,13.96
2023-05-04T07:34:48.789Z,14.15
2023-05-04T07:35:46.031Z,14.12
2023-05-04T07:36:44.994Z,14.11
2023-05-04T07:37:45.473Z,14.15
2023-05-04T07:47:51.867Z,14.16
2023-05-04T07:51:11.763Z,14.30
2023-05-04T07:52:02.969Z,14.23
2023-05-04T07:53:03.780Z,14.26
2023-05-04T07:54:02.751Z,14.22
2023-05-04T07:55:02.767Z,14.36
2023-05-04T07:56:01.981Z,14.33
2023-05-04T07:57:02.746Z,14.24
2023-05-04T07:58:01.786Z,14.36
2023-05-04T07:59:02.698Z,14.39
2023-05-04T08:00:03.031Z,14.23
2023-05-04T08:01:02.735Z,14.37
2023-05-04T08:02:01.787Z,14.47
2023-05-04T08:03:02.911Z,14.56
2023-05-04T08:05:20.784Z,14.54
2023-05-04T08:07:41.377Z,14.71
2023-05-04T08:08:41.347Z,14.88
2023-05-04T08:09:40.358Z,14.84
2023-05-04T08:10:41.317Z,14.91
2023-05-04T08:11:41.382Z,14.93
2023-05-04T08:12:41.378Z,14.89
2023-05-04T08:13:41.297Z,14.98
2023-05-04T08:15:59.350Z,14.96
2023-05-04T08:18:22.685Z,15.10
2023-05-04T08:19:19.535Z,15.02
2023-05-04T08:20:18.833Z,15.02
2023-05-04T08:21:18.508Z,15.14
2023-05-04T08:22:19.526Z,15.10
2023-05-04T08:23:19.487Z,15.12
2023-05-04T08:25:38.464Z,15.10
2023-05-04T08:26:47.308Z,15.06
2023-05-04T08:27:39.014Z,14.98
2023-05-04T08:28:38.990Z,15.14
2023-05-04T08:29:38.075Z,15.03
2023-05-04T08:30:39.025Z,15.06
2023-05-04T08:34:16.813Z,15.09
2023-05-04T08:35:17.701Z,15.10
2023-05-04T08:36:17.937Z,15.09
2023-05-04T08:37:16.590Z,15.23
2023-05-04T08:38:16.603Z,15.23
2023-05-04T08:39:17.601Z,15.26
2023-05-04T08:40:17.576Z,15.23
2023-05-04T08:41:16.565Z,15.44
2023-05-04T08:42:17.522Z,15.23
2023-05-04T08:44:36.775Z,15.26
2023-05-04T08:46:57.250Z,15.58
2023-05-04T08:48:06.350Z,15.58
2023-05-04T08:50:39.852Z,15.61
2023-05-04T08:51:52.077Z,15.46
2023-05-04T08:52:39.589Z,15.29
2023-05-04T08:53:39.565Z,15.50
2023-05-04T08:54:39.690Z,15.53
2023-05-04T08:55:39.565Z,15.47
2023-05-04T08:56:39.895Z,15.38
2023-05-04T08:57:39.548Z,15.55
2023-05-04T08:58:38.555Z,15.58
2023-05-04T08:59:39.522Z,15.88
2023-05-04T09:00:39.601Z,15.95
2023-05-04T09:01:39.543Z,16.06
2023-05-04T09:02:38.512Z,16.16
2023-05-04T09:03:39.548Z,16.17
2023-05-04T09:04:39.494Z,16.21
2023-05-04T09:05:38.500Z,16.09
2023-05-04T09:06:39.540Z,16.33
2023-05-04T09:07:39.450Z,16.24
2023-05-04T09:08:38.465Z,16.39
2023-05-04T09:09:38.540Z,16.35
2023-05-04T09:10:39.571Z,16.39
2023-05-04T09:11:38.450Z,16.41
2023-05-04T09:12:39.485Z,16.48
2023-05-04T09:13:39.483Z,16.55
2023-05-04T09:14:40.377Z,16.60
2023-05-04T09:15:39.434Z,16.55
2023-05-04T09:16:42.978Z,16.55
2023-05-04T09:17:50.972Z,16.40
2023-05-04T09:18:39.428Z,16.35
2023-05-04T09:20:57.704Z,16.54
2023-05-04T09:21:58.564Z,16.64
2023-05-04T09:22:58.469Z,16.52
2023-05-04T09:23:58.441Z,16.64
2023-05-04T09:24:58.386Z,16.78
2023-05-04T09:25:58.588Z,16.88
2023-05-04T09:26:57.482Z,16.82
2023-05-04T09:27:58.610Z,16.71
2023-05-04T09:28:57.374Z,16.80
2023-05-04T09:29:58.385Z,16.90
2023-05-04T09:30:57.349Z,16.99
2023-05-04T09:31:58.341Z,17.01
2023-05-04T09:32:57.464Z,17.02
2023-05-04T09:33:58.320Z,17.10
2023-05-04T09:34:57.389Z,17.17
2023-05-04T09:35:58.366Z,17.10
2023-05-04T09:36:58.323Z,17.20
2023-05-04T09:37:58.355Z,17.26
2023-05-04T09:38:58.281Z,17.26
2023-05-04T09:39:57.334Z,17.31
2023-05-04T09:40:57.355Z,17.37
2023-05-04T09:41:58.375Z,17.35
2023-05-04T09:42:57.357Z,17.50
2023-05-04T09:43:58.373Z,17.51
2023-05-04T09:44:58.407Z,17.48
2023-05-04T09:45:57.555Z,17.48
2023-05-04T09:46:58.526Z,17.45
2023-05-04T09:47:58.569Z,17.24
2023-05-04T09:48:58.508Z,17.33
2023-05-04T09:49:58.547Z,17.45
2023-05-04T09:50:58.542Z,17.55
2023-05-04T09:51:59.024Z,17.57
2023-05-04T09:52:58.583Z,17.54
2023-05-04T09:53:57.758Z,17.72
2023-05-04T09:54:57.698Z,17.81
2023-05-04T09:55:58.638Z,17.89
2023-05-04T09:56:58.796Z,17.95
2023-05-04T09:57:58.824Z,17.96
2023-05-04T09:58:57.876Z,18.03
2023-05-04T09:59:57.932Z,18.06
2023-05-04T10:00:58.965Z,18.00
2023-05-04T10:02:00.416Z,18.10
2023-05-04T10:02:59.154Z,18.17
2023-05-04T10:03:59.064Z,18.07
2023-05-04T10:04:59.077Z,18.07
2023-05-04T10:05:59.221Z,18.12
2023-05-04T10:06:59.045Z,18.17
2023-05-04T10:07:59.008Z,18.29
2023-05-04T10:08:58.022Z,18.44
2023-05-04T10:09:57.999Z,18.13
2023-05-04T10:10:58.012Z,18.17
2023-05-04T10:12:00.586Z,18.33
2023-05-04T10:12:58.989Z,18.29
2023-05-04T10:13:58.938Z,18.34
2023-05-04T10:14:58.938Z,18.33
2023-05-04T10:15:59.001Z,18.36
2023-05-04T10:16:58.936Z,18.50
2023-05-04T10:17:58.946Z,18.47
2023-05-04T10:18:57.930Z,18.58
2023-05-04T10:19:58.900Z,18.58
2023-05-04T10:20:58.898Z,18.56
2023-05-04T10:21:57.922Z,18.50
2023-05-04T10:22:57.902Z,18.46
2023-05-04T10:23:57.892Z,18.61
2023-05-04T10:24:58.887Z,18.54
2023-05-04T10:25:58.873Z,18.52
2023-05-04T10:26:58.838Z,18.72
2023-05-04T10:27:57.853Z,18.88
2023-05-04T10:28:58.853Z,18.96
2023-05-04T10:29:57.837Z,18.98
2023-05-04T10:30:58.832Z,18.95
2023-05-04T10:31:58.941Z,18.98
2023-05-04T10:32:58.899Z,18.90
2023-05-04T10:33:58.815Z,18.83
2023-05-04T10:34:57.795Z,18.93
2023-05-04T10:35:58.782Z,19.05
2023-05-04T10:36:58.784Z,19.09
2023-05-04T10:37:58.859Z,19.03
2023-05-04T10:38:58.788Z,19.06
2023-05-04T10:39:58.778Z,19.07
2023-05-04T10:40:57.776Z,19.27
2023-05-04T10:41:58.768Z,19.31
2023-05-04T10:42:59.035Z,19.10
2023-05-04T10:43:58.740Z,19.24
2023-05-04T10:44:58.746Z,19.37
2023-05-04T10:45:57.775Z,19.41
2023-05-04T10:46:59.827Z,19.54
2023-05-04T10:47:58.075Z,19.57
2023-05-04T10:48:58.729Z,19.61
2023-05-04T10:49:57.701Z,19.50
2023-05-04T10:50:58.695Z,19.38
2023-05-04T10:51:58.686Z,19.51
2023-05-04T10:52:59.504Z,19.52
2023-05-04T10:53:59.265Z,19.71
2023-05-04T10:54:58.929Z,19.61
2023-05-04T10:55:58.802Z,19.62
2023-05-04T10:56:58.869Z,19.72
2023-05-04T10:57:58.864Z,19.57
2023-05-04T10:58:57.886Z,19.54
2023-05-04T10:59:58.950Z,19.57
2023-05-04T11:00:58.022Z,19.57
2023-05-04T11:01:58.965Z,19.65
2023-05-04T11:02:58.118Z,19.72
2023-05-04T11:03:59.057Z,19.89
2023-05-04T11:04:58.042Z,19.97
2023-05-04T11:05:59.082Z,20.01
2023-05-04T11:06:59.117Z,20.16
2023-05-04T11:07:59.935Z,20.24
2023-05-04T11:08:58.167Z,20.12
2023-05-04T11:09:58.189Z,20.14
2023-05-04T11:10:59.224Z,20.14
2023-05-04T11:11:59.296Z,20.24
2023-05-04T11:12:59.352Z,20.25
2023-05-04T11:13:59.481Z,20.01
2023-05-04T11:14:59.436Z,20.25
2023-05-04T11:15:59.543Z,20.28
2023-05-04T11:16:59.471Z,20.28
2023-05-04T11:17:59.556Z,20.28
2023-05-04T11:18:59.555Z,20.41
2023-05-04T11:19:59.547Z,20.45
2023-05-04T11:20:59.596Z,20.54
2023-05-04T11:21:58.722Z,20.54
2023-05-04T11:22:58.719Z,20.59
2023-05-04T11:23:59.732Z,20.47
2023-05-04T11:24:58.746Z,20.45
2023-05-04T11:25:58.795Z,20.42
2023-05-04T11:26:58.827Z,20.31
2023-05-04T11:27:59.856Z,20.48
2023-05-04T11:28:59.878Z,20.68
2023-05-04T11:29:58.969Z,20.76
2023-05-04T11:30:59.981Z,20.89
2023-05-04T11:31:59.033Z,20.93
2023-05-04T11:32:59.135Z,20.75
2023-05-04T11:33:59.081Z,20.94
2023-05-04T11:34:59.135Z,21.04
2023-05-04T11:35:59.105Z,21.00
2023-05-04T11:37:00.214Z,21.03
2023-05-04T11:37:59.583Z,21.07
2023-05-04T11:39:00.254Z,21.07
2023-05-04T11:39:59.212Z,20.96
2023-05-04T11:41:00.240Z,20.93
2023-05-04T11:41:59.254Z,20.97
2023-05-04T11:42:59.203Z,20.83
2023-05-04T11:44:00.260Z,21.07
2023-05-04T11:45:00.287Z,21.21
2023-05-04T11:45:59.362Z,21.09
2023-05-04T11:46:59.342Z,21.14
2023-05-04T11:47:59.506Z,21.28
2023-05-04T11:48:59.367Z,21.40
2023-05-04T11:50:00.485Z,21.34
2023-05-04T11:51:00.515Z,21.34
2023-05-04T11:52:00.570Z,21.58
2023-05-04T11:52:59.655Z,21.55
2023-05-04T11:53:59.593Z,21.36
2023-05-04T11:55:00.610Z,21.56
2023-05-04T11:56:00.039Z,21.55
2023-05-04T11:57:00.864Z,21.66
2023-05-04T11:57:59.729Z,21.78
2023-05-04T11:58:59.779Z,21.82
2023-05-04T12:00:00.708Z,21.82
2023-05-04T12:01:00.775Z,21.73
2023-05-04T12:02:00.806Z,21.76
2023-05-04T12:03:00.984Z,21.68
2023-05-04T12:03:59.891Z,21.69
2023-05-04T12:04:59.896Z,21.71
2023-05-04T12:05:59.974Z,21.82
2023-05-04T12:07:01.740Z,21.89
2023-05-04T12:08:01.038Z,21.99
2023-05-04T12:09:01.013Z,21.95
2023-05-04T12:10:00.094Z,21.86
2023-05-04T12:11:00.068Z,21.90
2023-05-04T12:12:00.147Z,21.85
2023-05-04T12:13:01.232Z,21.97
2023-05-04T12:14:00.180Z,21.89
2023-05-04T12:15:01.231Z,22.16
2023-05-04T12:16:00.274Z,22.09
2023-05-04T12:17:01.282Z,22.18
2023-05-04T12:18:02.500Z,22.27
2023-05-04T12:19:00.260Z,22.45
2023-05-04T12:20:00.288Z,22.41
2023-05-04T12:21:02.803Z,22.55
2023-05-04T12:22:01.300Z,22.58
2023-05-04T12:23:00.234Z,22.55
2023-05-04T12:24:01.210Z,22.55
2023-05-04T12:25:00.285Z,22.52
2023-05-04T12:26:00.225Z,22.45
2023-05-04T12:27:00.205Z,22.58
2023-05-04T12:28:00.173Z,22.76
2023-05-04T12:29:00.149Z,22.52
2023-05-04T12:30:00.211Z,22.61
2023-05-04T12:31:00.200Z,22.54
2023-05-04T12:32:00.256Z,22.68
2023-05-04T12:33:00.298Z,22.79
2023-05-04T12:34:00.297Z,22.72
2023-05-04T12:35:00.212Z,22.78
2023-05-04T12:36:00.188Z,22.92
2023-05-04T12:37:00.151Z,23.03
2023-05-04T12:38:01.183Z,22.86
2023-05-04T12:39:00.162Z,22.72
2023-05-04T12:40:01.196Z,22.82
2023-05-04T12:41:01.172Z,22.97
2023-05-04T12:42:01.076Z,23.04
2023-05-04T12:43:01.153Z,22.76
2023-05-04T12:44:00.081Z,22.78
2023-05-04T12:45:01.092Z,23.14
2023-05-04T12:46:01.156Z,23.07
2023-05-04T12:47:01.122Z,23.09
2023-05-04T12:48:00.236Z,23.20
2023-05-04T12:49:00.025Z,23.24
2023-05-04T12:50:00.041Z,23.32
2023-05-04T12:51:00.081Z,23.23
2023-05-04T12:52:00.080Z,23.14
2023-05-04T12:53:00.014Z,23.04
2023-05-04T12:54:00.050Z,23.07
2023-05-04T12:55:01.108Z,22.96
2023-05-04T12:56:00.204Z,23.27
2023-05-04T12:57:00.113Z,23.17
2023-05-04T12:58:01.161Z,23.25
2023-05-04T12:59:00.134Z,23.30
2023-05-04T13:00:01.232Z,23.31
2023-05-04T13:01:00.297Z,23.34
2023-05-04T13:02:00.249Z,23.42
2023-05-04T13:03:00.494Z,23.42
2023-05-04T13:04:01.429Z,23.20
2023-05-04T13:05:00.378Z,23.37
2023-05-04T13:06:00.529Z,23.32
2023-05-04T13:07:01.445Z,23.40
2023-05-04T13:08:00.509Z,23.57
2023-05-04T13:09:00.498Z,23.57
2023-05-04T13:10:00.509Z,23.64
2023-05-04T13:11:01.612Z,23.68
2023-05-04T13:12:00.619Z,23.76
2023-05-04T13:13:01.773Z,23.85
2023-05-04T13:14:00.757Z,24.00
2023-05-04T13:15:00.733Z,23.95
2023-05-04T13:16:00.866Z,24.00
2023-05-04T13:17:01.898Z,23.96
2023-05-04T13:18:00.883Z,23.92
2023-05-04T13:19:00.904Z,24.02
2023-05-04T13:20:00.935Z,23.95
2023-05-04T13:21:00.957Z,23.93
2023-05-04T13:22:01.104Z,23.95
2023-05-04T13:23:01.232Z,23.95
2023-05-04T13:24:01.098Z,23.70
2023-05-04T13:25:01.141Z,23.59
2023-05-04T13:26:02.173Z,23.72
2023-05-04T13:27:02.306Z,23.93
2023-05-04T13:28:01.217Z,23.79
2023-05-04T13:29:01.257Z,23.68
2023-05-04T13:30:01.339Z,23.85
2023-05-04T13:31:01.378Z,23.76
2023-05-04T13:32:02.508Z,23.87
2023-05-04T13:33:07.702Z,23.80
2023-05-04T13:34:02.372Z,24.04
2023-05-04T13:35:01.316Z,24.06
2023-05-04T13:36:01.329Z,24.06
2023-05-04T13:37:02.402Z,24.32
2023-05-04T13:38:02.372Z,24.44
2023-05-04T13:39:01.364Z,24.51
2023-05-04T13:40:02.345Z,24.48
2023-05-04T13:41:01.274Z,24.52
2023-05-04T13:42:01.360Z,24.24
2023-05-04T13:43:01.341Z,24.34
2023-05-04T13:44:01.315Z,24.32
2023-05-04T13:45:01.299Z,24.31
2023-05-04T13:46:02.280Z,24.30
2023-05-04T13:47:01.378Z,24.34
2023-05-04T13:48:01.274Z,24.41
2023-05-04T13:49:02.229Z,24.62
2023-05-04T13:50:02.255Z,24.65
2023-05-04T13:51:01.285Z,24.42
2023-05-04T13:52:01.265Z,24.61
2023-05-04T13:53:01.217Z,24.71
2023-05-04T13:54:02.693Z,24.47
2023-05-04T13:55:01.255Z,24.45
2023-05-04T13:56:02.249Z,24.55
2023-05-04T13:57:01.249Z,24.78
2023-05-04T13:58:01.244Z,24.87
2023-05-04T13:59:02.230Z,24.62
2023-05-04T14:00:06.661Z,24.71
2023-05-04T14:01:02.183Z,24.71
2023-05-04T14:02:01.240Z,24.51
2023-05-04T14:03:01.293Z,24.24
2023-05-04T14:04:02.206Z,24.39
2023-05-04T14:05:01.202Z,24.37
2023-05-04T14:06:01.156Z,24.73
2023-05-04T14:07:02.089Z,24.86
2023-05-04T14:08:02.097Z,24.94
2023-05-04T14:09:02.216Z,24.97
2023-05-04T14:10:01.124Z,24.89
2023-05-04T14:11:01.074Z,24.81
2023-05-04T14:12:01.109Z,24.71
2023-05-04T14:13:01.109Z,24.87
2023-05-04T14:14:02.199Z,24.97
2023-05-04T14:15:01.281Z,24.94
2023-05-04T14:16:01.327Z,24.58
2023-05-04T14:17:01.245Z,24.72
2023-05-04T14:18:01.416Z,24.87
2023-05-04T14:19:01.307Z,24.81
2023-05-04T14:20:01.376Z,24.92
2023-05-04T14:21:02.354Z,24.99
2023-05-04T14:22:02.390Z,25.21
2023-05-04T14:23:01.339Z,25.09
2023-05-04T14:24:01.513Z,24.93
2023-05-04T14:25:02.509Z,25.09
2023-05-04T14:26:01.545Z,25.23
2023-05-04T14:27:02.565Z,25.14
2023-05-04T14:28:01.575Z,25.20
2023-05-04T14:29:01.559Z,25.23
2023-05-04T14:30:02.668Z,25.38
2023-05-04T14:31:01.721Z,25.30
2023-05-04T14:32:01.717Z,25.21
2023-05-04T14:33:02.828Z,25.24
2023-05-04T14:34:01.818Z,24.93
2023-05-04T14:35:01.806Z,25.24
2023-05-04T14:36:01.814Z,25.30
2023-05-04T14:37:01.920Z,25.23
2023-05-04T14:38:02.822Z,25.27
2023-05-04T14:39:02.835Z,25.18
2023-05-04T14:40:01.906Z,25.23
2023-05-04T14:41:03.027Z,25.11
2023-05-04T14:42:02.945Z,25.23
2023-05-04T14:43:02.969Z,25.13
2023-05-04T14:44:02.076Z,24.99
2023-05-04T14:45:01.959Z,25.21
2023-05-04T14:46:02.113Z,25.30
2023-05-04T14:47:02.051Z,25.38
2023-05-04T14:48:02.053Z,25.37
2023-05-04T14:49:02.101Z,25.48
2023-05-04T14:50:02.243Z,25.53
2023-05-04T14:51:02.165Z,25.49
2023-05-04T14:52:03.204Z,25.45
2023-05-04T14:53:02.236Z,25.49
2023-05-04T14:54:03.279Z,25.49
2023-05-04T14:55:02.297Z,25.64
2023-05-04T14:56:03.270Z,25.48
2023-05-04T14:57:02.291Z,25.45
2023-05-04T14:58:02.240Z,25.49
2023-05-04T14:59:03.378Z,25.26
2023-05-04T15:00:02.362Z,25.30
2023-05-04T15:01:02.388Z,25.46
2023-05-04T15:02:03.355Z,25.44
2023-05-04T15:03:02.510Z,25.59
2023-05-04T15:04:02.386Z,25.55
2023-05-04T15:05:02.407Z,25.82
2023-05-04T15:06:03.509Z,25.89
2023-05-04T15:07:03.572Z,25.96
2023-05-04T15:08:02.490Z,25.86
2023-05-04T15:09:02.584Z,26.06
2023-05-04T15:10:02.650Z,26.12
2023-05-04T15:11:02.669Z,26.13
2023-05-04T15:12:03.733Z,26.30
2023-05-04T15:13:02.700Z,26.31
2023-05-04T15:14:02.773Z,26.49
2023-05-04T15:15:02.684Z,26.51
2023-05-04T15:16:03.761Z,26.49
2023-05-04T15:17:03.789Z,26.58
2023-05-04T15:18:03.797Z,26.66
2023-05-04T15:19:02.793Z,26.47
2023-05-04T15:20:02.775Z,26.66
2023-05-04T15:21:03.828Z,26.44
2023-05-04T15:22:02.833Z,26.37
2023-05-04T15:23:03.871Z,26.45
2023-05-04T15:24:03.949Z,26.48
2023-05-04T15:25:03.899Z,26.62
2023-05-04T15:26:02.958Z,26.63
2023-05-04T15:27:03.935Z,26.89
2023-05-04T15:28:02.944Z,26.87
2023-05-04T15:29:03.059Z,26.96
2023-05-04T15:30:03.355Z,26.96
